Airfield :
LOGIN :

Register | Disclaimer

   EN    FR    IT 

 










Legend :    VFR   Marginal VFR   IFR   Intensive IFR   Very Intensive IFR
Visi :
Ceiling :
>= 8 km
>= 3000ft
5 to 8 km
1000 to 3000 ft
1500m to 5 km
500 to 1000 ft
800 to 1500m
200 to 500 ft
< 800m
< 200 ft
Symbols :   Thunderstorms  Fog  Heavy snow  Heavy precipitations  Wind > 20 kt
SIGMETs :     Misc.  Thunderstorms  Icing  Turbulence  Mountain Waves  Volcanic Ashes






- Airport Elevation : 1411 ft
- IATA code : SZG


LOWS - Salzburg

CURRENT METAR :
  • 160520Z 16006KT 9999 FEW003 SCT080 09/08 Q1009 NOSIG

EXPIRED METARs :
  • 160450Z 16008KT 9999 FEW003 SCT080 09/07 Q1009 NOSIG
  • 160420Z 15007KT 9999 FEW003 08/07 Q1009 NOSIG
  • 160350Z 15004KT 9999 FEW003 07/07 Q1009 NOSIG
  • 160320Z AUTO 15004KT 9999 FEW050 07/07 Q1009
  • 160250Z AUTO 19004KT 160V220 9999 BKN050 08/07 Q1009
  • 160220Z AUTO 15005KT 9999 FEW042 BKN050 08/07 Q1009

TAF TAF LOWS
Valid from the 16 at 00:00 until the 17 at 00:00 UTC


152315Z 1600/1624 31005KT 9999 FEW050 BKN070 TX16/1615Z TN09/1604Z
TEMPO 1600/1603 -RA
TEMPO 1600/1608 15006KT
TEMPO 1610/1616 30015KT -SHRA
TEMPO 1622/1624 SHRA



MET'MAP, your aeronautical weather chart ! - Copyright ORBIFLY December 2007 - Disclaimer

ORBIFLY MET'MAP TEAM :

Programming & Development : Alexandra Zaïnal
Concept & original design : Baudouin d'Aumeries
Assistance for programming : Marc-Olivier Méhu
Technical & hardware support : Manuel Goepfert

Contact : metmap@orbifly.com




SOURCES & CREDITS :

   NOAA